PWSweather.com
Personal Weather Stations
Station Observations
KCACOARS9
Yosemite Lakes Park, Coarsegold, CA 93614

Yosemite Lakes ParkCoarsegold, CA 93614

Lat: 37.180241, Lon: -119.765989

Elevation: 1266

Station Type: Davis Vantage Vue

http://www.weathervise.com

High Low Average
Temperature 60.6°F15.9°C 49.3°F9.6°C 54.9°F12.7°C
Dew Point 55.4°F13.0°C 43.3°F6.3°C 50.2°F10.1°C
Winds 21.0 mph 33.8 kmh Calm Calm 7.0 mph SE11.3 kmh SE
Wind Gusts 28.0 mph45.1 kmh -- 12.0 mph19.3 kmh
Humidity 98% 74% 85%
Pressure 30.04 in1017.3 mb 29.76 in1007.8 mb -
Precipitation 0.00 in0.0 mm - -
Hour Temp Dew Point Humidity Winds Wind Gusts Pressure Precip Precip Rate Daily Precip Total
12:00 AM 54.2°F12.3°C 51.0°F10.6°C 89% 7.0 mph SE11.3 kmh SE 12.0 mph19.3 kmh 29.86 in1011.2 mb 0.03 in0.8 mm 0.00 in0.0 mm 0.03 in0.8 mm
12:05 AM 53.8°F12.1°C 51.2°F10.7°C 91% 6.0 mph SE9.7 kmh SE 7.0 mph11.3 kmh 29.85 in1010.8 mb 0.03 in0.8 mm 0.00 in0.0 mm 0.03 in0.8 mm
12:10 AM 53.6°F12.0°C 51.3°F10.7°C 92% 4.0 mph SE6.4 kmh SE 6.0 mph9.7 kmh 29.84 in1010.5 mb 0.03 in0.8 mm 0.00 in0.0 mm 0.03 in0.8 mm
12:15 AM 53.4°F11.9°C 51.4°F10.8°C 93% 3.0 mph ESE4.8 kmh ESE 7.0 mph11.3 kmh 29.85 in1010.8 mb 0.04 in1.0 mm 0.12 in3.0 mm 0.04 in1.0 mm
12:20 AM 53.3°F11.8°C 51.3°F10.7°C 93% 3.0 mph SE4.8 kmh SE 5.0 mph8.0 kmh 29.84 in1010.5 mb 0.04 in1.0 mm 0.00 in0.0 mm 0.04 in1.0 mm
12:25 AM 53.3°F11.8°C 51.6°F10.9°C 94% 4.0 mph SE6.4 kmh SE 6.0 mph9.7 kmh 29.84 in1010.5 mb 0.04 in1.0 mm 0.00 in0.0 mm 0.04 in1.0 mm
12:30 AM 53.3°F11.8°C 51.6°F10.9°C 94% 3.0 mph SSE4.8 kmh SSE 7.0 mph11.3 kmh 29.84 in1010.5 mb 0.04 in1.0 mm 0.00 in0.0 mm 0.04 in1.0 mm
12:35 AM 53.4°F11.9°C 51.7°F10.9°C 94% 6.0 mph ESE9.7 kmh ESE 8.0 mph12.9 kmh 29.84 in1010.5 mb 0.05 in1.3 mm 0.12 in3.0 mm 0.05 in1.3 mm
12:40 AM 53.3°F11.8°C 51.6°F10.9°C 94% 6.0 mph E9.7 kmh E 6.0 mph9.7 kmh 29.82 in1009.8 mb 0.05 in1.3 mm 0.00 in0.0 mm 0.05 in1.3 mm
12:45 AM 53.3°F11.8°C 51.6°F10.9°C 94% 3.0 mph E4.8 kmh E 5.0 mph8.0 kmh 29.83 in1010.2 mb 0.05 in1.3 mm 0.00 in0.0 mm 0.05 in1.3 mm
12:50 AM 53.3°F11.8°C 51.6°F10.9°C 94% 3.0 mph SE4.8 kmh SE 6.0 mph9.7 kmh 29.83 in1010.2 mb 0.05 in1.3 mm 0.00 in0.0 mm 0.05 in1.3 mm
12:55 AM 53.3°F11.8°C 51.6°F10.9°C 94% 5.0 mph SE8.0 kmh SE 6.0 mph9.7 kmh 29.83 in1010.2 mb 0.05 in1.3 mm 0.00 in0.0 mm 0.05 in1.3 mm
01:00 AM 53.3°F11.8°C 51.6°F10.9°C 94% 4.0 mph SE6.4 kmh SE 6.0 mph9.7 kmh 29.83 in1010.2 mb 0.04 in1.0 mm 0.00 in0.0 mm 0.05 in1.3 mm
01:05 AM 53.3°F11.8°C 51.6°F10.9°C 94% 6.0 mph SE9.7 kmh SE 7.0 mph11.3 kmh 29.83 in1010.2 mb 0.04 in1.0 mm 0.00 in0.0 mm 0.05 in1.3 mm
01:10 AM 53.2°F11.8°C 51.2°F10.7°C 93% 6.0 mph E9.7 kmh E 9.0 mph14.5 kmh 29.83 in1010.2 mb 0.04 in1.0 mm 0.00 in0.0 mm 0.05 in1.3 mm
01:15 AM 53.1°F11.7°C 51.1°F10.6°C 93% 3.0 mph ESE4.8 kmh ESE 8.0 mph12.9 kmh 29.82 in1009.8 mb 0.05 in1.3 mm 0.12 in3.0 mm 0.06 in1.5 mm
01:20 AM 53.0°F11.7°C 51.0°F10.6°C 93% 5.0 mph SE8.0 kmh SE 6.0 mph9.7 kmh 29.83 in1010.2 mb 0.04 in1.0 mm 0.00 in0.0 mm 0.06 in1.5 mm
01:25 AM 53.0°F11.7°C 51.0°F10.6°C 93% 2.0 mph SE3.2 kmh SE 4.0 mph6.4 kmh 29.82 in1009.8 mb 0.04 in1.0 mm 0.00 in0.0 mm 0.06 in1.5 mm
01:30 AM 53.0°F11.7°C 51.0°F10.6°C 93% 4.0 mph S6.4 kmh S 6.0 mph9.7 kmh 29.83 in1010.2 mb 0.05 in1.3 mm 0.12 in3.0 mm 0.07 in1.8 mm
01:35 AM 52.8°F11.6°C 51.1°F10.6°C 94% 3.0 mph E4.8 kmh E 6.0 mph9.7 kmh 29.83 in1010.2 mb 0.09 in2.3 mm 0.48 in12.2 mm 0.11 in2.8 mm
01:40 AM 52.6°F11.4°C 50.9°F10.5°C 94% 4.0 mph ESE6.4 kmh ESE 4.0 mph6.4 kmh 29.82 in1009.8 mb 0.09 in2.3 mm 0.00 in0.0 mm 0.11 in2.8 mm
01:45 AM 52.5°F11.4°C 51.1°F10.6°C 95% 4.0 mph SE6.4 kmh SE 6.0 mph9.7 kmh 29.82 in1009.8 mb 0.09 in2.3 mm 0.00 in0.0 mm 0.11 in2.8 mm
01:50 AM 52.6°F11.4°C 51.2°F10.7°C 95% 6.0 mph ESE9.7 kmh ESE 8.0 mph12.9 kmh 29.82 in1009.8 mb 0.11 in2.8 mm 0.24 in6.1 mm 0.13 in3.3 mm
01:55 AM 52.6°F11.4°C 51.2°F10.7°C 95% 3.0 mph ESE4.8 kmh ESE 5.0 mph8.0 kmh 29.82 in1009.8 mb 0.11 in2.8 mm 0.00 in0.0 mm 0.13 in3.3 mm
02:00 AM 52.6°F11.4°C 51.2°F10.7°C 95% 3.0 mph SE4.8 kmh SE 6.0 mph9.7 kmh 29.82 in1009.8 mb 0.12 in3.0 mm 0.01 in0.3 mm 0.14 in3.6 mm
02:05 AM 52.6°F11.4°C 51.2°F10.7°C 95% 6.0 mph SE9.7 kmh SE 7.0 mph11.3 kmh 29.82 in1009.8 mb 0.12 in3.0 mm 0.00 in0.0 mm 0.14 in3.6 mm
02:10 AM 52.7°F11.5°C 51.3°F10.7°C 95% 4.0 mph SE6.4 kmh SE 7.0 mph11.3 kmh 29.82 in1009.8 mb 0.10 in2.5 mm 0.00 in0.0 mm 0.14 in3.6 mm
02:15 AM 52.7°F11.5°C 51.3°F10.7°C 95% 3.0 mph E4.8 kmh E 8.0 mph12.9 kmh 29.83 in1010.2 mb 0.11 in2.8 mm 0.12 in3.0 mm 0.15 in3.8 mm
02:20 AM 52.6°F11.4°C 51.5°F10.8°C 96% 3.0 mph SSE4.8 kmh SSE 7.0 mph11.3 kmh 29.82 in1009.8 mb 0.10 in2.5 mm 0.00 in0.0 mm 0.15 in3.8 mm
02:25 AM 52.6°F11.4°C 51.5°F10.8°C 96% 6.0 mph SE9.7 kmh SE 8.0 mph12.9 kmh 29.82 in1009.8 mb 0.10 in2.5 mm 0.00 in0.0 mm 0.15 in3.8 mm
02:30 AM 52.6°F11.4°C 51.5°F10.8°C 96% 3.0 mph SE4.8 kmh SE 9.0 mph14.5 kmh 29.83 in1010.2 mb 0.10 in2.5 mm 0.00 in0.0 mm 0.15 in3.8 mm
02:35 AM 52.6°F11.4°C 51.5°F10.8°C 96% 15.0 mph SE24.1 kmh SE 15.0 mph24.1 kmh 29.83 in1010.2 mb 0.09 in2.3 mm 0.00 in0.0 mm 0.15 in3.8 mm
02:40 AM 52.6°F11.4°C 51.5°F10.8°C 96% 8.0 mph ESE12.9 kmh ESE 13.0 mph20.9 kmh 29.82 in1009.8 mb 0.04 in1.0 mm 0.00 in0.0 mm 0.15 in3.8 mm
02:45 AM 52.4°F11.3°C 51.3°F10.7°C 96% 5.0 mph E8.0 kmh E 12.0 mph19.3 kmh 29.82 in1009.8 mb 0.04 in1.0 mm 0.00 in0.0 mm 0.15 in3.8 mm
02:50 AM 52.5°F11.4°C 51.7°F10.9°C 97% 6.0 mph ESE9.7 kmh ESE 10.0 mph16.1 kmh 29.81 in1009.5 mb 0.03 in0.8 mm 0.00 in0.0 mm 0.15 in3.8 mm
02:55 AM 52.4°F11.3°C 51.6°F10.9°C 97% 6.0 mph SE9.7 kmh SE 10.0 mph16.1 kmh 29.81 in1009.5 mb 0.03 in0.8 mm 0.00 in0.0 mm 0.15 in3.8 mm
03:00 AM 52.4°F11.3°C 51.6°F10.9°C 97% 6.0 mph SE9.7 kmh SE 9.0 mph14.5 kmh 29.81 in1009.5 mb 0.03 in0.8 mm 0.00 in0.0 mm 0.15 in3.8 mm
03:05 AM 52.4°F11.3°C 51.6°F10.9°C 97% 7.0 mph SE11.3 kmh SE 10.0 mph16.1 kmh 29.81 in1009.5 mb 0.02 in0.5 mm 0.00 in0.0 mm 0.15 in3.8 mm
03:10 AM 52.4°F11.3°C 51.6°F10.9°C 97% 5.0 mph SSW8.0 kmh SSW 9.0 mph14.5 kmh 29.81 in1009.5 mb 0.02 in0.5 mm 0.00 in0.0 mm 0.15 in3.8 mm
03:15 AM 52.4°F11.3°C 51.6°F10.9°C 97% 6.0 mph SE9.7 kmh SE 11.0 mph17.7 kmh 29.81 in1009.5 mb 0.02 in0.5 mm 0.00 in0.0 mm 0.15 in3.8 mm
03:20 AM 52.4°F11.3°C 51.6°F10.9°C 97% 10.0 mph ESE16.1 kmh ESE 16.0 mph25.7 kmh 29.81 in1009.5 mb 0.01 in0.3 mm 0.00 in0.0 mm 0.15 in3.8 mm
03:25 AM 52.5°F11.4°C 51.7°F10.9°C 97% 6.0 mph ESE9.7 kmh ESE 11.0 mph17.7 kmh 29.80 in1009.1 mb 0.01 in0.3 mm 0.00 in0.0 mm 0.15 in3.8 mm
03:30 AM 52.5°F11.4°C 52.0°F11.1°C 98% 13.0 mph SE20.9 kmh SE 15.0 mph24.1 kmh 29.80 in1009.1 mb 0.01 in0.3 mm 0.00 in0.0 mm 0.15 in3.8 mm
03:35 AM 52.5°F11.4°C 52.0°F11.1°C 98% 7.0 mph SSE11.3 kmh SSE 14.0 mph22.5 kmh 29.80 in1009.1 mb 0.02 in0.5 mm 0.12 in3.0 mm 0.16 in4.1 mm
03:40 AM 52.6°F11.4°C 52.1°F11.2°C 98% 7.0 mph SE11.3 kmh SE 20.0 mph32.2 kmh 29.80 in1009.1 mb 0.02 in0.5 mm 0.00 in0.0 mm 0.16 in4.1 mm
03:45 AM 52.6°F11.4°C 52.1°F11.2°C 98% 10.0 mph SSW16.1 kmh SSW 18.0 mph29.0 kmh 29.79 in1008.8 mb 0.02 in0.5 mm 0.00 in0.0 mm 0.16 in4.1 mm
03:50 AM 52.6°F11.4°C 51.8°F11.0°C 97% 6.0 mph SE9.7 kmh SE 18.0 mph29.0 kmh 29.79 in1008.8 mb 0.02 in0.5 mm 0.00 in0.0 mm 0.16 in4.1 mm
03:55 AM 52.6°F11.4°C 51.8°F11.0°C 97% 13.0 mph SE20.9 kmh SE 22.0 mph35.4 kmh 29.80 in1009.1 mb 0.02 in0.5 mm 0.00 in0.0 mm 0.16 in4.1 mm
04:00 AM 52.6°F11.4°C 51.5°F10.8°C 96% 13.0 mph E20.9 kmh E 18.0 mph29.0 kmh 29.79 in1008.8 mb 0.01 in0.3 mm 0.00 in0.0 mm 0.16 in4.1 mm
04:05 AM 52.6°F11.4°C 50.9°F10.5°C 94% 8.0 mph SSE12.9 kmh SSE 20.0 mph32.2 kmh 29.80 in1009.1 mb 0.01 in0.3 mm 0.00 in0.0 mm 0.16 in4.1 mm
04:10 AM 52.5°F11.4°C 50.8°F10.4°C 94% 13.0 mph E20.9 kmh E 23.0 mph37.0 kmh 29.80 in1009.1 mb 0.01 in0.3 mm 0.00 in0.0 mm 0.16 in4.1 mm
04:15 AM 52.3°F11.3°C 50.3°F10.2°C 93% 13.0 mph SE20.9 kmh SE 23.0 mph37.0 kmh 29.80 in1009.1 mb 0.01 in0.3 mm 0.00 in0.0 mm 0.16 in4.1 mm
04:20 AM 52.1°F11.2°C 50.4°F10.2°C 94% 11.0 mph SE17.7 kmh SE 16.0 mph25.7 kmh 29.80 in1009.1 mb 0.01 in0.3 mm 0.00 in0.0 mm 0.16 in4.1 mm
04:25 AM 52.2°F11.2°C 50.2°F10.1°C 93% 9.0 mph ESE14.5 kmh ESE 19.0 mph30.6 kmh 29.80 in1009.1 mb 0.01 in0.3 mm 0.00 in0.0 mm 0.16 in4.1 mm
04:30 AM 52.1°F11.2°C 50.4°F10.2°C 94% 9.0 mph E14.5 kmh E 13.0 mph20.9 kmh 29.79 in1008.8 mb 0.01 in0.3 mm 0.00 in0.0 mm 0.16 in4.1 mm
04:35 AM 52.0°F11.1°C 50.3°F10.2°C 94% 10.0 mph E16.1 kmh E 11.0 mph17.7 kmh 29.78 in1008.5 mb 0.01 in0.3 mm 0.00 in0.0 mm 0.16 in4.1 mm
04:40 AM 52.1°F11.2°C 50.1°F10.1°C 93% 10.0 mph ESE16.1 kmh ESE 12.0 mph19.3 kmh 29.78 in1008.5 mb 0.00 in0.0 mm 0.00 in0.0 mm 0.16 in4.1 mm
04:45 AM 52.2°F11.2°C 50.2°F10.1°C 93% 5.0 mph SE8.0 kmh SE 12.0 mph19.3 kmh 29.77 in1008.1 mb 0.00 in0.0 mm 0.00 in0.0 mm 0.16 in4.1 mm
04:50 AM 52.3°F11.3°C 50.1°F10.1°C 92% 6.0 mph SE9.7 kmh SE 13.0 mph20.9 kmh 29.77 in1008.1 mb 0.00 in0.0 mm 0.00 in0.0 mm 0.16 in4.1 mm
04:55 AM 52.5°F11.4°C 50.3°F10.2°C 92% 8.0 mph SE12.9 kmh SE 14.0 mph22.5 kmh 29.77 in1008.1 mb 0.00 in0.0 mm 0.00 in0.0 mm 0.16 in4.1 mm
05:00 AM 52.7°F11.5°C 50.2°F10.1°C 91% 9.0 mph E14.5 kmh E 14.0 mph22.5 kmh 29.77 in1008.1 mb 0.00 in0.0 mm 0.00 in0.0 mm 0.16 in4.1 mm
05:05 AM 52.8°F11.6°C 50.3°F10.2°C 91% 7.0 mph SE11.3 kmh SE 13.0 mph20.9 kmh 29.77 in1008.1 mb 0.00 in0.0 mm 0.00 in0.0 mm 0.16 in4.1 mm
05:10 AM 52.9°F11.6°C 50.4°F10.2°C 91% 6.0 mph ESE9.7 kmh ESE 14.0 mph22.5 kmh 29.78 in1008.5 mb 0.00 in0.0 mm 0.00 in0.0 mm 0.16 in4.1 mm
05:15 AM 52.9°F11.6°C 50.4°F10.2°C 91% 8.0 mph ESE12.9 kmh ESE 12.0 mph19.3 kmh 29.78 in1008.5 mb 0.00 in0.0 mm 0.00 in0.0 mm 0.16 in4.1 mm
05:20 AM 53.1°F11.7°C 50.6°F10.3°C 91% 6.0 mph ESE9.7 kmh ESE 15.0 mph24.1 kmh 29.78 in1008.5 mb 0.00 in0.0 mm 0.00 in0.0 mm 0.16 in4.1 mm
05:25 AM 53.1°F11.7°C 50.6°F10.3°C 91% 10.0 mph E16.1 kmh E 13.0 mph20.9 kmh 29.78 in1008.5 mb 0.00 in0.0 mm 0.00 in0.0 mm 0.16 in4.1 mm
05:30 AM 53.3°F11.8°C 50.7°F10.4°C 91% 9.0 mph SE14.5 kmh SE 16.0 mph25.7 kmh 29.79 in1008.8 mb 0.00 in0.0 mm 0.00 in0.0 mm 0.16 in4.1 mm
05:35 AM 53.3°F11.8°C 50.5°F10.3°C 90% 10.0 mph ESE16.1 kmh ESE 13.0 mph20.9 kmh 29.78 in1008.5 mb 0.00 in0.0 mm 0.00 in0.0 mm 0.16 in4.1 mm
05:40 AM 53.4°F11.9°C 50.6°F10.3°C 90% 4.0 mph SE6.4 kmh SE 13.0 mph20.9 kmh 29.79 in1008.8 mb 0.00 in0.0 mm 0.00 in0.0 mm 0.16 in4.1 mm
05:45 AM 53.4°F11.9°C 50.6°F10.3°C 90% 6.0 mph SE9.7 kmh SE 17.0 mph27.4 kmh 29.79 in1008.8 mb 0.00 in0.0 mm 0.00 in0.0 mm 0.16 in4.1 mm
05:50 AM 53.4°F11.9°C 50.8°F10.4°C 91% 18.0 mph ESE29.0 kmh ESE 19.0 mph30.6 kmh 29.79 in1008.8 mb 0.00 in0.0 mm 0.00 in0.0 mm 0.16 in4.1 mm
05:55 AM 53.3°F11.8°C 51.0°F10.6°C 92% 9.0 mph SE14.5 kmh SE 22.0 mph35.4 kmh 29.79 in1008.8 mb 0.00 in0.0 mm 0.00 in0.0 mm 0.16 in4.1 mm
06:00 AM 52.9°F11.6°C 51.2°F10.7°C 94% 7.0 mph SE11.3 kmh SE 16.0 mph25.7 kmh 29.78 in1008.5 mb 0.00 in0.0 mm 0.00 in0.0 mm 0.16 in4.1 mm
06:05 AM 52.8°F11.6°C 51.1°F10.6°C 94% 7.0 mph SE11.3 kmh SE 14.0 mph22.5 kmh 29.78 in1008.5 mb 0.00 in0.0 mm 0.00 in0.0 mm 0.16 in4.1 mm
06:10 AM 52.8°F11.6°C 51.1°F10.6°C 94% 9.0 mph ESE14.5 kmh ESE 14.0 mph22.5 kmh 29.78 in1008.5 mb 0.00 in0.0 mm 0.00 in0.0 mm 0.16 in4.1 mm
06:15 AM 52.8°F11.6°C 51.1°F10.6°C 94% 7.0 mph SE11.3 kmh SE 13.0 mph20.9 kmh 29.78 in1008.5 mb 0.00 in0.0 mm 0.00 in0.0 mm 0.16 in4.1 mm
06:20 AM 52.9°F11.6°C 51.2°F10.7°C 94% 14.0 mph E22.5 kmh E 15.0 mph24.1 kmh 29.78 in1008.5 mb 0.00 in0.0 mm 0.00 in0.0 mm 0.16 in4.1 mm
06:25 AM 53.1°F11.7°C 51.1°F10.6°C 93% 10.0 mph ESE16.1 kmh ESE 15.0 mph24.1 kmh 29.78 in1008.5 mb 0.00 in0.0 mm 0.00 in0.0 mm 0.16 in4.1 mm
06:30 AM 53.1°F11.7°C 51.1°F10.6°C 93% 10.0 mph ESE16.1 kmh ESE 14.0 mph22.5 kmh 29.78 in1008.5 mb 0.00 in0.0 mm 0.00 in0.0 mm 0.16 in4.1 mm
06:35 AM 53.2°F11.8°C 51.2°F10.7°C 93% 8.0 mph E12.9 kmh E 13.0 mph20.9 kmh 29.78 in1008.5 mb 0.00 in0.0 mm 0.00 in0.0 mm 0.16 in4.1 mm
06:40 AM 53.2°F11.8°C 51.2°F10.7°C 93% 11.0 mph SE17.7 kmh SE 15.0 mph24.1 kmh 29.79 in1008.8 mb 0.00 in0.0 mm 0.00 in0.0 mm 0.16 in4.1 mm
06:45 AM 53.3°F11.8°C 51.3°F10.7°C 93% 12.0 mph ESE19.3 kmh ESE 16.0 mph25.7 kmh 29.78 in1008.5 mb 0.00 in0.0 mm 0.00 in0.0 mm 0.16 in4.1 mm
06:50 AM 53.3°F11.8°C 51.3°F10.7°C 93% 9.0 mph SE14.5 kmh SE 17.0 mph27.4 kmh 29.78 in1008.5 mb 0.00 in0.0 mm 0.00 in0.0 mm 0.16 in4.1 mm
06:55 AM 53.2°F11.8°C 51.2°F10.7°C 93% 5.0 mph S8.0 kmh S 12.0 mph19.3 kmh 29.78 in1008.5 mb 0.00 in0.0 mm 0.00 in0.0 mm 0.16 in4.1 mm
07:00 AM 53.0°F11.7°C 51.3°F10.7°C 94% 6.0 mph SE9.7 kmh SE 10.0 mph16.1 kmh 29.79 in1008.8 mb 0.02 in0.5 mm 0.02 in0.5 mm 0.18 in4.6 mm
07:05 AM 52.8°F11.6°C 51.1°F10.6°C 94% 9.0 mph ESE14.5 kmh ESE 13.0 mph20.9 kmh 29.78 in1008.5 mb 0.04 in1.0 mm 0.24 in6.1 mm 0.20 in5.1 mm
07:10 AM 52.6°F11.4°C 51.2°F10.7°C 95% 15.0 mph SE24.1 kmh SE 17.0 mph27.4 kmh 29.76 in1007.8 mb 0.06 in1.5 mm 0.24 in6.1 mm 0.22 in5.6 mm
07:15 AM 52.5°F11.4°C 51.1°F10.6°C 95% 4.0 mph SE6.4 kmh SE 19.0 mph30.6 kmh 29.78 in1008.5 mb 0.06 in1.5 mm 0.00 in0.0 mm 0.22 in5.6 mm
07:20 AM 52.4°F11.3°C 51.0°F10.6°C 95% 5.0 mph SE8.0 kmh SE 14.0 mph22.5 kmh 29.79 in1008.8 mb 0.07 in1.8 mm 0.12 in3.0 mm 0.23 in5.8 mm
07:25 AM 52.4°F11.3°C 51.0°F10.6°C 95% 4.0 mph SE6.4 kmh SE 15.0 mph24.1 kmh 29.79 in1008.8 mb 0.07 in1.8 mm 0.00 in0.0 mm 0.23 in5.8 mm
07:30 AM 52.3°F11.3°C 51.2°F10.7°C 96% 4.0 mph SSE6.4 kmh SSE 18.0 mph29.0 kmh 29.80 in1009.1 mb 0.07 in1.8 mm 0.00 in0.0 mm 0.23 in5.8 mm
07:35 AM 52.3°F11.3°C 51.2°F10.7°C 96% 16.0 mph ESE25.7 kmh ESE 17.0 mph27.4 kmh 29.80 in1009.1 mb 0.07 in1.8 mm 0.00 in0.0 mm 0.23 in5.8 mm
07:40 AM 52.4°F11.3°C 51.3°F10.7°C 96% 11.0 mph SE17.7 kmh SE 18.0 mph29.0 kmh 29.80 in1009.1 mb 0.07 in1.8 mm 0.00 in0.0 mm 0.23 in5.8 mm
07:45 AM 52.5°F11.4°C 51.1°F10.6°C 95% 11.0 mph ESE17.7 kmh ESE 20.0 mph32.2 kmh 29.80 in1009.1 mb 0.07 in1.8 mm 0.00 in0.0 mm 0.23 in5.8 mm
07:50 AM 52.5°F11.4°C 51.1°F10.6°C 95% 7.0 mph ESE11.3 kmh ESE 17.0 mph27.4 kmh 29.81 in1009.5 mb 0.07 in1.8 mm 0.00 in0.0 mm 0.23 in5.8 mm
07:55 AM 52.5°F11.4°C 51.1°F10.6°C 95% 9.0 mph ESE14.5 kmh ESE 14.0 mph22.5 kmh 29.81 in1009.5 mb 0.07 in1.8 mm 0.00 in0.0 mm 0.23 in5.8 mm
08:00 AM 52.5°F11.4°C 51.1°F10.6°C 95% 9.0 mph ESE14.5 kmh ESE 14.0 mph22.5 kmh 29.81 in1009.5 mb 0.07 in1.8 mm 0.00 in0.0 mm 0.23 in5.8 mm
08:05 AM 52.5°F11.4°C 51.1°F10.6°C 95% 5.0 mph SE8.0 kmh SE 16.0 mph25.7 kmh 29.81 in1009.5 mb 0.05 in1.3 mm 0.00 in0.0 mm 0.23 in5.8 mm
08:10 AM 52.5°F11.4°C 50.8°F10.4°C 94% 10.0 mph ESE16.1 kmh ESE 12.0 mph19.3 kmh 29.81 in1009.5 mb 0.03 in0.8 mm 0.00 in0.0 mm 0.23 in5.8 mm
08:15 AM 52.5°F11.4°C 51.1°F10.6°C 95% 6.0 mph ESE9.7 kmh ESE 12.0 mph19.3 kmh 29.82 in1009.8 mb 0.01 in0.3 mm 0.00 in0.0 mm 0.23 in5.8 mm
08:20 AM 52.4°F11.3°C 51.0°F10.6°C 95% 7.0 mph SE11.3 kmh SE 9.0 mph14.5 kmh 29.82 in1009.8 mb 0.01 in0.3 mm 0.00 in0.0 mm 0.23 in5.8 mm
08:25 AM 52.5°F11.4°C 51.1°F10.6°C 95% 5.0 mph SE8.0 kmh SE 12.0 mph19.3 kmh 29.82 in1009.8 mb 0.00 in0.0 mm 0.00 in0.0 mm 0.23 in5.8 mm
08:30 AM 52.5°F11.4°C 50.8°F10.4°C 94% 6.0 mph SE9.7 kmh SE 7.0 mph11.3 kmh 29.82 in1009.8 mb 0.00 in0.0 mm 0.00 in0.0 mm 0.23 in5.8 mm
08:35 AM 52.6°F11.4°C 50.9°F10.5°C 94% 5.0 mph SE8.0 kmh SE 11.0 mph17.7 kmh 29.82 in1009.8 mb 0.00 in0.0 mm 0.00 in0.0 mm 0.23 in5.8 mm
08:40 AM 52.8°F11.6°C 51.1°F10.6°C 94% 8.0 mph SE12.9 kmh SE 11.0 mph17.7 kmh 29.82 in1009.8 mb 0.00 in0.0 mm 0.00 in0.0 mm 0.23 in5.8 mm
08:45 AM 53.4°F11.9°C 51.4°F10.8°C 93% 9.0 mph ESE14.5 kmh ESE 9.0 mph14.5 kmh 29.82 in1009.8 mb 0.00 in0.0 mm 0.00 in0.0 mm 0.23 in5.8 mm
08:50 AM 53.6°F12.0°C 51.3°F10.7°C 92% 10.0 mph ESE16.1 kmh ESE 13.0 mph20.9 kmh 29.82 in1009.8 mb 0.00 in0.0 mm 0.00 in0.0 mm 0.23 in5.8 mm
08:55 AM 53.9°F12.2°C 51.3°F10.7°C 91% 11.0 mph ESE17.7 kmh ESE 11.0 mph17.7 kmh 29.83 in1010.2 mb 0.00 in0.0 mm 0.00 in0.0 mm 0.23 in5.8 mm
09:00 AM 54.0°F12.2°C 51.4°F10.8°C 91% 12.0 mph ESE19.3 kmh ESE 14.0 mph22.5 kmh 29.83 in1010.2 mb 0.00 in0.0 mm 0.00 in0.0 mm 0.23 in5.8 mm
09:05 AM 54.0°F12.2°C 51.1°F10.6°C 90% 9.0 mph SE14.5 kmh SE 11.0 mph17.7 kmh 29.83 in1010.2 mb 0.00 in0.0 mm 0.00 in0.0 mm 0.23 in5.8 mm
09:10 AM 54.2°F12.3°C 51.0°F10.6°C 89% 6.0 mph ESE9.7 kmh ESE 16.0 mph25.7 kmh 29.83 in1010.2 mb 0.00 in0.0 mm 0.00 in0.0 mm 0.23 in5.8 mm
09:15 AM 54.3°F12.4°C 51.1°F10.6°C 89% 7.0 mph ESE11.3 kmh ESE 12.0 mph19.3 kmh 29.83 in1010.2 mb 0.00 in0.0 mm 0.00 in0.0 mm 0.23 in5.8 mm
09:20 AM 54.4°F12.4°C 51.2°F10.7°C 89% 8.0 mph E12.9 kmh E 12.0 mph19.3 kmh 29.82 in1009.8 mb 0.00 in0.0 mm 0.00 in0.0 mm 0.23 in5.8 mm
09:25 AM 54.5°F12.5°C 51.0°F10.6°C 88% 13.0 mph SE20.9 kmh SE 13.0 mph20.9 kmh 29.83 in1010.2 mb 0.00 in0.0 mm 0.00 in0.0 mm 0.23 in5.8 mm
09:30 AM 54.7°F12.6°C 51.2°F10.7°C 88% 5.0 mph E8.0 kmh E 15.0 mph24.1 kmh 29.82 in1009.8 mb 0.00 in0.0 mm 0.00 in0.0 mm 0.23 in5.8 mm
09:35 AM 54.9°F12.7°C 51.4°F10.8°C 88% 7.0 mph ESE11.3 kmh ESE 11.0 mph17.7 kmh 29.82 in1009.8 mb 0.00 in0.0 mm 0.00 in0.0 mm 0.23 in5.8 mm
09:40 AM 55.1°F12.8°C 51.3°F10.7°C 87% 8.0 mph SE12.9 kmh SE 11.0 mph17.7 kmh 29.83 in1010.2 mb 0.00 in0.0 mm 0.00 in0.0 mm 0.23 in5.8 mm
09:45 AM 55.5°F13.1°C 51.7°F10.9°C 87% 6.0 mph ESE9.7 kmh ESE 14.0 mph22.5 kmh 29.83 in1010.2 mb 0.00 in0.0 mm 0.00 in0.0 mm 0.23 in5.8 mm
09:50 AM 55.7°F13.2°C 51.6°F10.9°C 86% 4.0 mph SE6.4 kmh SE 14.0 mph22.5 kmh 29.83 in1010.2 mb 0.00 in0.0 mm 0.00 in0.0 mm 0.23 in5.8 mm
09:55 AM 56.0°F13.3°C 51.9°F11.1°C 86% 8.0 mph SE12.9 kmh SE 15.0 mph24.1 kmh 29.83 in1010.2 mb 0.00 in0.0 mm 0.00 in0.0 mm 0.23 in5.8 mm
10:00 AM 56.2°F13.4°C 51.4°F10.8°C 84% 9.0 mph ESE14.5 kmh ESE 16.0 mph25.7 kmh 29.83 in1010.2 mb 0.00 in0.0 mm 0.00 in0.0 mm 0.23 in5.8 mm
10:05 AM 56.3°F13.5°C 51.5°F10.8°C 84% 9.0 mph SE14.5 kmh SE 15.0 mph24.1 kmh 29.83 in1010.2 mb 0.00 in0.0 mm 0.00 in0.0 mm 0.23 in5.8 mm
10:10 AM 56.2°F13.4°C 51.4°F10.8°C 84% 11.0 mph ESE17.7 kmh ESE 13.0 mph20.9 kmh 29.83 in1010.2 mb 0.00 in0.0 mm 0.00 in0.0 mm 0.23 in5.8 mm
10:15 AM 56.2°F13.4°C 51.1°F10.6°C 83% 7.0 mph E11.3 kmh E 13.0 mph20.9 kmh 29.83 in1010.2 mb 0.00 in0.0 mm 0.00 in0.0 mm 0.23 in5.8 mm
10:20 AM 56.1°F13.4°C 51.3°F10.7°C 84% 6.0 mph SE9.7 kmh SE 11.0 mph17.7 kmh 29.83 in1010.2 mb 0.00 in0.0 mm 0.00 in0.0 mm 0.23 in5.8 mm
10:25 AM 56.1°F13.4°C 51.3°F10.7°C 84% 8.0 mph SE12.9 kmh SE 10.0 mph16.1 kmh 29.83 in1010.2 mb 0.00 in0.0 mm 0.00 in0.0 mm 0.23 in5.8 mm
10:30 AM 56.0°F13.3°C 51.2°F10.7°C 84% 7.0 mph SE11.3 kmh SE 11.0 mph17.7 kmh 29.83 in1010.2 mb 0.00 in0.0 mm 0.00 in0.0 mm 0.23 in5.8 mm
10:35 AM 55.9°F13.3°C 51.1°F10.6°C 84% 5.0 mph SE8.0 kmh SE 12.0 mph19.3 kmh 29.83 in1010.2 mb 0.00 in0.0 mm 0.00 in0.0 mm 0.23 in5.8 mm
10:40 AM 55.8°F13.2°C 51.1°F10.6°C 84% 7.0 mph E11.3 kmh E 12.0 mph19.3 kmh 29.83 in1010.2 mb 0.00 in0.0 mm 0.00 in0.0 mm 0.23 in5.8 mm
10:45 AM 56.1°F13.4°C 51.3°F10.7°C 84% 5.0 mph SE8.0 kmh SE 13.0 mph20.9 kmh 29.83 in1010.2 mb 0.00 in0.0 mm 0.00 in0.0 mm 0.23 in5.8 mm
10:50 AM 56.3°F13.5°C 51.5°F10.8°C 84% 6.0 mph SE9.7 kmh SE 10.0 mph16.1 kmh 29.83 in1010.2 mb 0.00 in0.0 mm 0.00 in0.0 mm 0.23 in5.8 mm
10:55 AM 56.7°F13.7°C 51.3°F10.7°C 82% 10.0 mph ESE16.1 kmh ESE 12.0 mph19.3 kmh 29.83 in1010.2 mb 0.00 in0.0 mm 0.00 in0.0 mm 0.23 in5.8 mm
11:00 AM 56.9°F13.8°C 51.5°F10.8°C 82% 5.0 mph SSE8.0 kmh SSE 13.0 mph20.9 kmh 29.83 in1010.2 mb 0.00 in0.0 mm 0.00 in0.0 mm 0.23 in5.8 mm
11:05 AM 57.0°F13.9°C 51.2°F10.7°C 81% 5.0 mph SSE8.0 kmh SSE 10.0 mph16.1 kmh 29.83 in1010.2 mb 0.00 in0.0 mm 0.00 in0.0 mm 0.23 in5.8 mm
11:10 AM 57.6°F14.2°C 51.8°F11.0°C 81% 14.0 mph SE22.5 kmh SE 14.0 mph22.5 kmh 29.84 in1010.5 mb 0.00 in0.0 mm 0.00 in0.0 mm 0.23 in5.8 mm
11:15 AM 58.1°F14.5°C 51.6°F10.9°C 79% 8.0 mph SSE12.9 kmh SSE 15.0 mph24.1 kmh 29.84 in1010.5 mb 0.00 in0.0 mm 0.00 in0.0 mm 0.23 in5.8 mm
11:25 AM 57.7°F14.3°C 51.2°F10.7°C 79% 15.0 mph ESE24.1 kmh ESE 17.0 mph27.4 kmh 29.84 in1010.5 mb 0.00 in0.0 mm 0.00 in0.0 mm 0.23 in5.8 mm
11:30 AM 57.9°F14.4°C 51.4°F10.8°C 79% 10.0 mph SSE16.1 kmh SSE 19.0 mph30.6 kmh 29.84 in1010.5 mb 0.00 in0.0 mm 0.00 in0.0 mm 0.23 in5.8 mm
11:35 AM 58.2°F14.6°C 51.7°F10.9°C 79% 7.0 mph SSE11.3 kmh SSE 12.0 mph19.3 kmh 29.84 in1010.5 mb 0.00 in0.0 mm 0.00 in0.0 mm 0.23 in5.8 mm
11:40 AM 58.3°F14.6°C 51.5°F10.8°C 78% 11.0 mph SE17.7 kmh SE 22.0 mph35.4 kmh 29.84 in1010.5 mb 0.00 in0.0 mm 0.00 in0.0 mm 0.23 in5.8 mm
11:45 AM 57.8°F14.3°C 52.0°F11.1°C 81% 6.0 mph SE9.7 kmh SE 20.0 mph32.2 kmh 29.85 in1010.8 mb 0.00 in0.0 mm 0.00 in0.0 mm 0.23 in5.8 mm
11:50 AM 57.3°F14.1°C 51.9°F11.1°C 82% 8.0 mph E12.9 kmh E 15.0 mph24.1 kmh 29.85 in1010.8 mb 0.00 in0.0 mm 0.00 in0.0 mm 0.23 in5.8 mm
11:55 AM 57.6°F14.2°C 52.5°F11.4°C 83% 8.0 mph ESE12.9 kmh ESE 11.0 mph17.7 kmh 29.84 in1010.5 mb 0.00 in0.0 mm 0.00 in0.0 mm 0.23 in5.8 mm
12:00 PM 58.0°F14.4°C 53.5°F11.9°C 85% 6.0 mph SE9.7 kmh SE 11.0 mph17.7 kmh 29.85 in1010.8 mb 0.00 in0.0 mm 0.00 in0.0 mm 0.23 in5.8 mm
12:10 PM 59.5°F15.3°C 53.0°F11.7°C 79% 7.0 mph SE11.3 kmh SE 17.0 mph27.4 kmh 29.84 in1010.5 mb 0.00 in0.0 mm 0.00 in0.0 mm 0.23 in5.8 mm
12:15 PM 60.1°F15.6°C 53.2°F11.8°C 78% 12.0 mph E19.3 kmh E 17.0 mph27.4 kmh 29.84 in1010.5 mb 0.00 in0.0 mm 0.00 in0.0 mm 0.23 in5.8 mm
12:20 PM 60.1°F15.6°C 52.2°F11.2°C 75% 8.0 mph SSE12.9 kmh SSE 20.0 mph32.2 kmh 29.84 in1010.5 mb 0.00 in0.0 mm 0.00 in0.0 mm 0.23 in5.8 mm
12:25 PM 59.9°F15.5°C 52.3°F11.3°C 76% 9.0 mph SE14.5 kmh SE 17.0 mph27.4 kmh 29.84 in1010.5 mb 0.00 in0.0 mm 0.00 in0.0 mm 0.23 in5.8 mm
12:30 PM 59.7°F15.4°C 52.5°F11.4°C 77% 10.0 mph SE16.1 kmh SE 18.0 mph29.0 kmh 29.84 in1010.5 mb 0.00 in0.0 mm 0.00 in0.0 mm 0.23 in5.8 mm
12:35 PM 59.3°F15.2°C 52.1°F11.2°C 77% 10.0 mph SE16.1 kmh SE 20.0 mph32.2 kmh 29.84 in1010.5 mb 0.00 in0.0 mm 0.00 in0.0 mm 0.23 in5.8 mm
12:40 PM 59.2°F15.1°C 52.4°F11.3°C 78% 17.0 mph ESE27.4 kmh ESE 20.0 mph32.2 kmh 29.84 in1010.5 mb 0.00 in0.0 mm 0.00 in0.0 mm 0.23 in5.8 mm
12:45 PM 59.7°F15.4°C 51.8°F11.0°C 75% 21.0 mph ESE33.8 kmh ESE 21.0 mph33.8 kmh 29.84 in1010.5 mb 0.00 in0.0 mm 0.00 in0.0 mm 0.23 in5.8 mm
12:50 PM 59.8°F15.4°C 52.6°F11.4°C 77% 12.0 mph SE19.3 kmh SE 20.0 mph32.2 kmh 29.84 in1010.5 mb 0.00 in0.0 mm 0.00 in0.0 mm 0.23 in5.8 mm
12:55 PM 59.4°F15.2°C 52.2°F11.2°C 77% 11.0 mph SE17.7 kmh SE 16.0 mph25.7 kmh 29.84 in1010.5 mb 0.00 in0.0 mm 0.00 in0.0 mm 0.23 in5.8 mm
01:00 PM 59.1°F15.1°C 52.3°F11.3°C 78% 9.0 mph SE14.5 kmh SE 16.0 mph25.7 kmh 29.84 in1010.5 mb 0.00 in0.0 mm 0.00 in0.0 mm 0.23 in5.8 mm
01:05 PM 58.8°F14.9°C 52.0°F11.1°C 78% 13.0 mph ESE20.9 kmh ESE 18.0 mph29.0 kmh 29.83 in1010.2 mb 0.00 in0.0 mm 0.00 in0.0 mm 0.23 in5.8 mm
01:10 PM 58.3°F14.6°C 52.2°F11.2°C 80% 13.0 mph ESE20.9 kmh ESE 13.0 mph20.9 kmh 29.85 in1010.8 mb 0.00 in0.0 mm 0.00 in0.0 mm 0.23 in5.8 mm
01:15 PM 55.8°F13.2°C 50.4°F10.2°C 82% 7.0 mph SE11.3 kmh SE 20.0 mph32.2 kmh 29.84 in1010.5 mb 0.03 in0.8 mm 0.36 in9.1 mm 0.26 in6.6 mm
01:20 PM 54.8°F12.7°C 51.3°F10.7°C 88% 5.0 mph SE8.0 kmh SE 13.0 mph20.9 kmh 29.84 in1010.5 mb 0.06 in1.5 mm 0.36 in9.1 mm 0.29 in7.4 mm
01:25 PM 54.6°F12.6°C 52.0°F11.1°C 91% 1.0 mph SSE1.6 kmh SSE 7.0 mph11.3 kmh 29.83 in1010.2 mb 0.10 in2.5 mm 0.48 in12.2 mm 0.33 in8.4 mm
01:30 PM 54.6°F12.6°C 52.3°F11.3°C 92% Calm Calm 4.0 mph6.4 kmh 29.83 in1010.2 mb 0.10 in2.5 mm 0.00 in0.0 mm 0.33 in8.4 mm
01:35 PM 54.7°F12.6°C 52.7°F11.5°C 93% 3.0 mph ESE4.8 kmh ESE 3.0 mph4.8 kmh 29.83 in1010.2 mb 0.10 in2.5 mm 0.00 in0.0 mm 0.33 in8.4 mm
01:40 PM 55.2°F12.9°C 53.5°F11.9°C 94% 4.0 mph SSE6.4 kmh SSE 5.0 mph8.0 kmh 29.83 in1010.2 mb 0.10 in2.5 mm 0.00 in0.0 mm 0.33 in8.4 mm
01:45 PM 56.1°F13.4°C 54.7°F12.6°C 95% 2.0 mph SE3.2 kmh SE 4.0 mph6.4 kmh 29.82 in1009.8 mb 0.10 in2.5 mm 0.00 in0.0 mm 0.33 in8.4 mm
01:50 PM 58.0°F14.4°C 55.4°F13.0°C 91% 9.0 mph SE14.5 kmh SE 15.0 mph24.1 kmh 29.82 in1009.8 mb 0.10 in2.5 mm 0.00 in0.0 mm 0.33 in8.4 mm
01:55 PM 59.3°F15.2°C 53.8°F12.1°C 82% 7.0 mph SE11.3 kmh SE 17.0 mph27.4 kmh 29.82 in1009.8 mb 0.10 in2.5 mm 0.00 in0.0 mm 0.33 in8.4 mm
02:00 PM 59.5°F15.3°C 53.0°F11.7°C 79% 7.0 mph E11.3 kmh E 15.0 mph24.1 kmh 29.82 in1009.8 mb 0.10 in2.5 mm 0.00 in0.0 mm 0.33 in8.4 mm
02:05 PM 59.4°F15.2°C 52.6°F11.4°C 78% 11.0 mph SE17.7 kmh SE 28.0 mph45.1 kmh 29.82 in1009.8 mb 0.10 in2.5 mm 0.00 in0.0 mm 0.33 in8.4 mm
02:10 PM 59.6°F15.3°C 53.1°F11.7°C 79% 11.0 mph E17.7 kmh E 20.0 mph32.2 kmh 29.82 in1009.8 mb 0.10 in2.5 mm 0.00 in0.0 mm 0.33 in8.4 mm
02:15 PM 59.6°F15.3°C 53.8°F12.1°C 81% 8.0 mph E12.9 kmh E 19.0 mph30.6 kmh 29.81 in1009.5 mb 0.09 in2.3 mm 0.00 in0.0 mm 0.33 in8.4 mm
02:20 PM 60.2°F15.7°C 53.7°F12.1°C 79% 12.0 mph SE19.3 kmh SE 17.0 mph27.4 kmh 29.81 in1009.5 mb 0.06 in1.5 mm 0.00 in0.0 mm 0.33 in8.4 mm
02:25 PM 60.3°F15.7°C 53.8°F12.1°C 79% 7.0 mph ESE11.3 kmh ESE 23.0 mph37.0 kmh 29.81 in1009.5 mb 0.03 in0.8 mm 0.00 in0.0 mm 0.33 in8.4 mm
02:30 PM 60.0°F15.6°C 53.1°F11.7°C 78% 9.0 mph ESE14.5 kmh ESE 12.0 mph19.3 kmh 29.81 in1009.5 mb 0.00 in0.0 mm 0.00 in0.0 mm 0.33 in8.4 mm
02:35 PM 59.6°F15.3°C 52.7°F11.5°C 78% 8.0 mph SE12.9 kmh SE 15.0 mph24.1 kmh 29.81 in1009.5 mb 0.00 in0.0 mm 0.00 in0.0 mm 0.33 in8.4 mm
02:40 PM 59.4°F15.2°C 52.6°F11.4°C 78% 9.0 mph SE14.5 kmh SE 17.0 mph27.4 kmh 29.81 in1009.5 mb 0.00 in0.0 mm 0.00 in0.0 mm 0.33 in8.4 mm
02:45 PM 59.1°F15.1°C 52.3°F11.3°C 78% 9.0 mph SE14.5 kmh SE 15.0 mph24.1 kmh 29.81 in1009.5 mb 0.00 in0.0 mm 0.00 in0.0 mm 0.33 in8.4 mm
02:50 PM 58.8°F14.9°C 52.3°F11.3°C 79% 4.0 mph ESE6.4 kmh ESE 16.0 mph25.7 kmh 29.81 in1009.5 mb 0.00 in0.0 mm 0.00 in0.0 mm 0.33 in8.4 mm
02:55 PM 57.9°F14.4°C 52.8°F11.6°C 83% 2.0 mph E3.2 kmh E 8.0 mph12.9 kmh 29.81 in1009.5 mb 0.07 in1.8 mm 0.84 in21.3 mm 0.40 in10.2 mm
03:00 PM 56.8°F13.8°C 52.7°F11.5°C 86% Calm Calm 3.0 mph4.8 kmh 29.80 in1009.1 mb 0.10 in2.5 mm 0.03 in0.8 mm 0.43 in10.9 mm
03:05 PM 56.2°F13.4°C 53.0°F11.7°C 89% 2.0 mph E3.2 kmh E 3.0 mph4.8 kmh 29.80 in1009.1 mb 0.10 in2.5 mm 0.00 in0.0 mm 0.43 in10.9 mm
03:10 PM 56.3°F13.5°C 52.8°F11.6°C 88% 20.0 mph SSE32.2 kmh SSE 20.0 mph32.2 kmh 29.80 in1009.1 mb 0.10 in2.5 mm 0.00 in0.0 mm 0.43 in10.9 mm
03:15 PM 57.4°F14.1°C 52.6°F11.4°C 84% 10.0 mph ESE16.1 kmh ESE 22.0 mph35.4 kmh 29.80 in1009.1 mb 0.10 in2.5 mm 0.00 in0.0 mm 0.43 in10.9 mm
03:20 PM 58.0°F14.4°C 52.9°F11.6°C 83% 7.0 mph SSE11.3 kmh SSE 17.0 mph27.4 kmh 29.81 in1009.5 mb 0.10 in2.5 mm 0.00 in0.0 mm 0.43 in10.9 mm
03:25 PM 58.5°F14.7°C 53.4°F11.9°C 83% 8.0 mph SE12.9 kmh SE 13.0 mph20.9 kmh 29.81 in1009.5 mb 0.10 in2.5 mm 0.00 in0.0 mm 0.43 in10.9 mm
03:30 PM 58.8°F14.9°C 53.3°F11.8°C 82% 10.0 mph E16.1 kmh E 19.0 mph30.6 kmh 29.81 in1009.5 mb 0.10 in2.5 mm 0.00 in0.0 mm 0.43 in10.9 mm
03:35 PM 59.1°F15.1°C 53.3°F11.8°C 81% 9.0 mph SE14.5 kmh SE 23.0 mph37.0 kmh 29.81 in1009.5 mb 0.10 in2.5 mm 0.00 in0.0 mm 0.43 in10.9 mm
03:40 PM 59.3°F15.2°C 53.5°F11.9°C 81% 10.0 mph SE16.1 kmh SE 20.0 mph32.2 kmh 29.81 in1009.5 mb 0.10 in2.5 mm 0.00 in0.0 mm 0.43 in10.9 mm
03:45 PM 59.6°F15.3°C 54.1°F12.3°C 82% 19.0 mph ESE30.6 kmh ESE 20.0 mph32.2 kmh 29.81 in1009.5 mb 0.10 in2.5 mm 0.00 in0.0 mm 0.43 in10.9 mm
03:50 PM 60.0°F15.6°C 54.2°F12.3°C 81% 9.0 mph ESE14.5 kmh ESE 16.0 mph25.7 kmh 29.81 in1009.5 mb 0.10 in2.5 mm 0.00 in0.0 mm 0.43 in10.9 mm
03:55 PM 60.5°F15.8°C 54.3°F12.4°C 80% 6.0 mph ESE9.7 kmh ESE 20.0 mph32.2 kmh 29.81 in1009.5 mb 0.10 in2.5 mm 0.00 in0.0 mm 0.43 in10.9 mm
04:00 PM 60.6°F15.9°C 54.1°F12.3°C 79% 12.0 mph SE19.3 kmh SE 12.0 mph19.3 kmh 29.81 in1009.5 mb 0.03 in0.8 mm 0.00 in0.0 mm 0.43 in10.9 mm
04:05 PM 60.4°F15.8°C 53.9°F12.2°C 79% 7.0 mph SE11.3 kmh SE 13.0 mph20.9 kmh 29.81 in1009.5 mb 0.00 in0.0 mm 0.00 in0.0 mm 0.43 in10.9 mm
04:10 PM 60.5°F15.8°C 54.3°F12.4°C 80% 6.0 mph E9.7 kmh E 19.0 mph30.6 kmh 29.81 in1009.5 mb 0.00 in0.0 mm 0.00 in0.0 mm 0.43 in10.9 mm
04:15 PM 60.4°F15.8°C 53.5°F11.9°C 78% 6.0 mph SE9.7 kmh SE 17.0 mph27.4 kmh 29.81 in1009.5 mb 0.00 in0.0 mm 0.00 in0.0 mm 0.43 in10.9 mm
04:20 PM 60.1°F15.6°C 53.6°F12.0°C 79% 13.0 mph SE20.9 kmh SE 22.0 mph35.4 kmh 29.82 in1009.8 mb 0.00 in0.0 mm 0.00 in0.0 mm 0.43 in10.9 mm
04:25 PM 59.5°F15.3°C 52.6°F11.4°C 78% 11.0 mph ESE17.7 kmh ESE 19.0 mph30.6 kmh 29.82 in1009.8 mb 0.00 in0.0 mm 0.00 in0.0 mm 0.43 in10.9 mm
04:30 PM 58.8°F14.9°C 52.0°F11.1°C 78% 11.0 mph ESE17.7 kmh ESE 19.0 mph30.6 kmh 29.82 in1009.8 mb 0.00 in0.0 mm 0.00 in0.0 mm 0.43 in10.9 mm
04:35 PM 58.6°F14.8°C 52.5°F11.4°C 80% 10.0 mph SE16.1 kmh SE 14.0 mph22.5 kmh 29.82 in1009.8 mb 0.00 in0.0 mm 0.00 in0.0 mm 0.43 in10.9 mm
04:40 PM 58.7°F14.8°C 52.9°F11.6°C 81% 12.0 mph E19.3 kmh E 16.0 mph25.7 kmh 29.82 in1009.8 mb 0.00 in0.0 mm 0.00 in0.0 mm 0.43 in10.9 mm
04:45 PM 58.9°F14.9°C 53.4°F11.9°C 82% 10.0 mph SE16.1 kmh SE 15.0 mph24.1 kmh 29.82 in1009.8 mb 0.00 in0.0 mm 0.00 in0.0 mm 0.43 in10.9 mm
04:50 PM 59.1°F15.1°C 53.6°F12.0°C 82% 10.0 mph E16.1 kmh E 15.0 mph24.1 kmh 29.82 in1009.8 mb 0.00 in0.0 mm 0.00 in0.0 mm 0.43 in10.9 mm
04:55 PM 59.2°F15.1°C 54.1°F12.3°C 83% 6.0 mph SE9.7 kmh SE 19.0 mph30.6 kmh 29.82 in1009.8 mb 0.00 in0.0 mm 0.00 in0.0 mm 0.43 in10.9 mm
05:00 PM 59.4°F15.2°C 53.9°F12.2°C 82% 8.0 mph ESE12.9 kmh ESE 15.0 mph24.1 kmh 29.82 in1009.8 mb 0.00 in0.0 mm 0.00 in0.0 mm 0.43 in10.9 mm
05:05 PM 59.7°F15.4°C 53.5°F11.9°C 80% 11.0 mph ESE17.7 kmh ESE 20.0 mph32.2 kmh 29.82 in1009.8 mb 0.00 in0.0 mm 0.00 in0.0 mm 0.43 in10.9 mm
05:10 PM 59.8°F15.4°C 53.6°F12.0°C 80% 11.0 mph E17.7 kmh E 15.0 mph24.1 kmh 29.82 in1009.8 mb 0.00 in0.0 mm 0.00 in0.0 mm 0.43 in10.9 mm
05:15 PM 59.8°F15.4°C 52.9°F11.6°C 78% 9.0 mph SE14.5 kmh SE 21.0 mph33.8 kmh 29.83 in1010.2 mb 0.00 in0.0 mm 0.00 in0.0 mm 0.43 in10.9 mm
05:20 PM 59.8°F15.4°C 52.9°F11.6°C 78% 7.0 mph SE11.3 kmh SE 19.0 mph30.6 kmh 29.83 in1010.2 mb 0.00 in0.0 mm 0.00 in0.0 mm 0.43 in10.9 mm
05:25 PM 59.8°F15.4°C 52.6°F11.4°C 77% 6.0 mph SE9.7 kmh SE 15.0 mph24.1 kmh 29.83 in1010.2 mb 0.00 in0.0 mm 0.00 in0.0 mm 0.43 in10.9 mm
05:30 PM 59.7°F15.4°C 52.5°F11.4°C 77% 11.0 mph SSE17.7 kmh SSE 11.0 mph17.7 kmh 29.83 in1010.2 mb 0.00 in0.0 mm 0.00 in0.0 mm 0.43 in10.9 mm
05:35 PM 59.7°F15.4°C 52.5°F11.4°C 77% 7.0 mph ESE11.3 kmh ESE 15.0 mph24.1 kmh 29.83 in1010.2 mb 0.00 in0.0 mm 0.00 in0.0 mm 0.43 in10.9 mm
05:40 PM 59.6°F15.3°C 52.0°F11.1°C 76% 7.0 mph SSE11.3 kmh SSE 16.0 mph25.7 kmh 29.83 in1010.2 mb 0.00 in0.0 mm 0.00 in0.0 mm 0.43 in10.9 mm
05:45 PM 59.6°F15.3°C 52.0°F11.1°C 76% 10.0 mph SE16.1 kmh SE 17.0 mph27.4 kmh 29.83 in1010.2 mb 0.00 in0.0 mm 0.00 in0.0 mm 0.43 in10.9 mm
05:50 PM 59.5°F15.3°C 51.9°F11.1°C 76% 8.0 mph ESE12.9 kmh ESE 13.0 mph20.9 kmh 29.83 in1010.2 mb 0.00 in0.0 mm 0.00 in0.0 mm 0.43 in10.9 mm
05:55 PM 59.5°F15.3°C 51.6°F10.9°C 75% 11.0 mph ESE17.7 kmh ESE 20.0 mph32.2 kmh 29.83 in1010.2 mb 0.00 in0.0 mm 0.00 in0.0 mm 0.43 in10.9 mm
06:00 PM 59.3°F15.2°C 51.8°F11.0°C 76% 9.0 mph SE14.5 kmh SE 15.0 mph24.1 kmh 29.84 in1010.5 mb 0.00 in0.0 mm 0.00 in0.0 mm 0.43 in10.9 mm
06:05 PM 59.2°F15.1°C 51.7°F10.9°C 76% 6.0 mph SE9.7 kmh SE 17.0 mph27.4 kmh 29.84 in1010.5 mb 0.00 in0.0 mm 0.00 in0.0 mm 0.43 in10.9 mm
06:10 PM 59.0°F15.0°C 51.8°F11.0°C 77% 9.0 mph SE14.5 kmh SE 11.0 mph17.7 kmh 29.84 in1010.5 mb 0.00 in0.0 mm 0.00 in0.0 mm 0.43 in10.9 mm
06:15 PM 58.9°F14.9°C 51.7°F10.9°C 77% 8.0 mph SE12.9 kmh SE 14.0 mph22.5 kmh 29.85 in1010.8 mb 0.00 in0.0 mm 0.00 in0.0 mm 0.43 in10.9 mm
06:20 PM 58.7°F14.8°C 51.5°F10.8°C 77% 10.0 mph ESE16.1 kmh ESE 12.0 mph19.3 kmh 29.85 in1010.8 mb 0.00 in0.0 mm 0.00 in0.0 mm 0.43 in10.9 mm
06:25 PM 58.6°F14.8°C 51.8°F11.0°C 78% 9.0 mph SE14.5 kmh SE 13.0 mph20.9 kmh 29.85 in1010.8 mb 0.00 in0.0 mm 0.00 in0.0 mm 0.43 in10.9 mm
06:30 PM 58.4°F14.7°C 51.2°F10.7°C 77% 5.0 mph S8.0 kmh S 13.0 mph20.9 kmh 29.85 in1010.8 mb 0.00 in0.0 mm 0.00 in0.0 mm 0.43 in10.9 mm
06:35 PM 58.3°F14.6°C 51.5°F10.8°C 78% 4.0 mph SE6.4 kmh SE 10.0 mph16.1 kmh 29.85 in1010.8 mb 0.00 in0.0 mm 0.00 in0.0 mm 0.43 in10.9 mm
06:40 PM 58.2°F14.6°C 51.7°F10.9°C 79% 6.0 mph ESE9.7 kmh ESE 9.0 mph14.5 kmh 29.86 in1011.2 mb 0.00 in0.0 mm 0.00 in0.0 mm 0.43 in10.9 mm
06:45 PM 58.0°F14.4°C 51.5°F10.8°C 79% 1.0 mph ESE1.6 kmh ESE 7.0 mph11.3 kmh 29.86 in1011.2 mb 0.00 in0.0 mm 0.00 in0.0 mm 0.43 in10.9 mm
06:50 PM 57.9°F14.4°C 51.4°F10.8°C 79% 7.0 mph SE11.3 kmh SE 9.0 mph14.5 kmh 29.87 in1011.5 mb 0.00 in0.0 mm 0.00 in0.0 mm 0.43 in10.9 mm
06:55 PM 57.7°F14.3°C 50.6°F10.3°C 77% 6.0 mph SE9.7 kmh SE 12.0 mph19.3 kmh 29.87 in1011.5 mb 0.00 in0.0 mm 0.00 in0.0 mm 0.43 in10.9 mm
07:00 PM 57.4°F14.1°C 50.3°F10.2°C 77% 1.0 mph SE1.6 kmh SE 11.0 mph17.7 kmh 29.87 in1011.5 mb 0.00 in0.0 mm 0.00 in0.0 mm 0.43 in10.9 mm
07:05 PM 57.1°F13.9°C 50.0°F10.0°C 77% 7.0 mph ESE11.3 kmh ESE 8.0 mph12.9 kmh 29.87 in1011.5 mb 0.00 in0.0 mm 0.00 in0.0 mm 0.43 in10.9 mm
07:10 PM 56.8°F13.8°C 49.3°F9.6°C 76% 8.0 mph S12.9 kmh S 11.0 mph17.7 kmh 29.88 in1011.9 mb 0.00 in0.0 mm 0.00 in0.0 mm 0.43 in10.9 mm
07:15 PM 56.7°F13.7°C 49.2°F9.6°C 76% 1.0 mph SE1.6 kmh SE 11.0 mph17.7 kmh 29.88 in1011.9 mb 0.00 in0.0 mm 0.00 in0.0 mm 0.43 in10.9 mm
07:20 PM 56.5°F13.6°C 49.4°F9.7°C 77% 4.0 mph SE6.4 kmh SE 12.0 mph19.3 kmh 29.88 in1011.9 mb 0.00 in0.0 mm 0.00 in0.0 mm 0.43 in10.9 mm
07:25 PM 56.2°F13.4°C 49.1°F9.5°C 77% 4.0 mph SE6.4 kmh SE 10.0 mph16.1 kmh 29.88 in1011.9 mb 0.00 in0.0 mm 0.00 in0.0 mm 0.43 in10.9 mm
07:30 PM 56.0°F13.3°C 49.3°F9.6°C 78% 4.0 mph SE6.4 kmh SE 8.0 mph12.9 kmh 29.89 in1012.2 mb 0.00 in0.0 mm 0.00 in0.0 mm 0.43 in10.9 mm
07:35 PM 56.0°F13.3°C 49.3°F9.6°C 78% 4.0 mph SE6.4 kmh SE 13.0 mph20.9 kmh 29.89 in1012.2 mb 0.00 in0.0 mm 0.00 in0.0 mm 0.43 in10.9 mm
07:40 PM 55.8°F13.2°C 49.1°F9.5°C 78% 2.0 mph SE3.2 kmh SE 9.0 mph14.5 kmh 29.89 in1012.2 mb 0.00 in0.0 mm 0.00 in0.0 mm 0.43 in10.9 mm
07:45 PM 55.7°F13.2°C 48.6°F9.2°C 77% 11.0 mph ESE17.7 kmh ESE 16.0 mph25.7 kmh 29.90 in1012.5 mb 0.00 in0.0 mm 0.00 in0.0 mm 0.43 in10.9 mm
07:50 PM 55.5°F13.1°C 48.4°F9.1°C 77% 7.0 mph SE11.3 kmh SE 11.0 mph17.7 kmh 29.90 in1012.5 mb 0.00 in0.0 mm 0.00 in0.0 mm 0.43 in10.9 mm
07:55 PM 55.3°F12.9°C 47.9°F8.8°C 76% 5.0 mph ESE8.0 kmh ESE 11.0 mph17.7 kmh 29.90 in1012.5 mb 0.00 in0.0 mm 0.00 in0.0 mm 0.43 in10.9 mm
08:00 PM 55.1°F12.8°C 47.7°F8.7°C 76% 6.0 mph S9.7 kmh S 7.0 mph11.3 kmh 29.90 in1012.5 mb 0.00 in0.0 mm 0.00 in0.0 mm 0.43 in10.9 mm
08:05 PM 55.0°F12.8°C 47.2°F8.4°C 75% 4.0 mph SE6.4 kmh SE 11.0 mph17.7 kmh 29.90 in1012.5 mb 0.00 in0.0 mm 0.00 in0.0 mm 0.43 in10.9 mm
08:10 PM 54.9°F12.7°C 46.8°F8.2°C 74% 5.0 mph SE8.0 kmh SE 11.0 mph17.7 kmh 29.91 in1012.9 mb 0.00 in0.0 mm 0.00 in0.0 mm 0.43 in10.9 mm
08:15 PM 54.8°F12.7°C 47.0°F8.3°C 75% 4.0 mph SE6.4 kmh SE 8.0 mph12.9 kmh 29.91 in1012.9 mb 0.00 in0.0 mm 0.00 in0.0 mm 0.43 in10.9 mm
08:20 PM 54.7°F12.6°C 46.6°F8.1°C 74% 5.0 mph SE8.0 kmh SE 13.0 mph20.9 kmh 29.91 in1012.9 mb 0.00 in0.0 mm 0.00 in0.0 mm 0.43 in10.9 mm
08:25 PM 54.7°F12.6°C 46.6°F8.1°C 74% 5.0 mph E8.0 kmh E 13.0 mph20.9 kmh 29.92 in1013.2 mb 0.00 in0.0 mm 0.00 in0.0 mm 0.43 in10.9 mm
08:30 PM 54.6°F12.6°C 46.9°F8.3°C 75% 1.0 mph S1.6 kmh S 8.0 mph12.9 kmh 29.92 in1013.2 mb 0.00 in0.0 mm 0.00 in0.0 mm 0.43 in10.9 mm
08:35 PM 54.3°F12.4°C 46.6°F8.1°C 75% 4.0 mph ESE6.4 kmh ESE 6.0 mph9.7 kmh 29.93 in1013.5 mb 0.00 in0.0 mm 0.00 in0.0 mm 0.43 in10.9 mm
08:40 PM 54.2°F12.3°C 46.8°F8.2°C 76% 2.0 mph SE3.2 kmh SE 8.0 mph12.9 kmh 29.93 in1013.5 mb 0.00 in0.0 mm 0.00 in0.0 mm 0.43 in10.9 mm
08:45 PM 54.1°F12.3°C 46.4°F8.0°C 75% 4.0 mph E6.4 kmh E 6.0 mph9.7 kmh 29.94 in1013.9 mb 0.00 in0.0 mm 0.00 in0.0 mm 0.43 in10.9 mm
08:50 PM 54.0°F12.2°C 46.6°F8.1°C 76% 3.0 mph SE4.8 kmh SE 13.0 mph20.9 kmh 29.94 in1013.9 mb 0.00 in0.0 mm 0.00 in0.0 mm 0.43 in10.9 mm
08:55 PM 53.8°F12.1°C 46.1°F7.8°C 75% 2.0 mph SW3.2 kmh SW 4.0 mph6.4 kmh 29.95 in1014.2 mb 0.00 in0.0 mm 0.00 in0.0 mm 0.43 in10.9 mm
09:00 PM 53.5°F11.9°C 46.1°F7.8°C 76% Calm Calm 4.0 mph6.4 kmh 29.95 in1014.2 mb 0.00 in0.0 mm 0.00 in0.0 mm 0.43 in10.9 mm
09:05 PM 53.3°F11.8°C 45.9°F7.7°C 76% 2.0 mph SE3.2 kmh SE 4.0 mph6.4 kmh 29.95 in1014.2 mb 0.00 in0.0 mm 0.00 in0.0 mm 0.43 in10.9 mm
09:10 PM 53.3°F11.8°C 45.6°F7.6°C 75% 2.0 mph SE3.2 kmh SE 8.0 mph12.9 kmh 29.96 in1014.6 mb 0.00 in0.0 mm 0.00 in0.0 mm 0.43 in10.9 mm
09:15 PM 53.3°F11.8°C 45.9°F7.7°C 76% 2.0 mph E3.2 kmh E 4.0 mph6.4 kmh 29.96 in1014.6 mb 0.00 in0.0 mm 0.00 in0.0 mm 0.43 in10.9 mm
09:20 PM 53.2°F11.8°C 45.5°F7.5°C 75% 2.0 mph SE3.2 kmh SE 7.0 mph11.3 kmh 29.97 in1014.9 mb 0.00 in0.0 mm 0.00 in0.0 mm 0.43 in10.9 mm
09:25 PM 53.2°F11.8°C 45.8°F7.7°C 76% 1.0 mph SE1.6 kmh SE 7.0 mph11.3 kmh 29.97 in1014.9 mb 0.00 in0.0 mm 0.00 in0.0 mm 0.43 in10.9 mm
09:30 PM 53.2°F11.8°C 45.8°F7.7°C 76% 3.0 mph SE4.8 kmh SE 4.0 mph6.4 kmh 29.98 in1015.2 mb 0.00 in0.0 mm 0.00 in0.0 mm 0.43 in10.9 mm
09:35 PM 53.1°F11.7°C 45.8°F7.7°C 76% 3.0 mph E4.8 kmh E 4.0 mph6.4 kmh 29.98 in1015.2 mb 0.00 in0.0 mm 0.00 in0.0 mm 0.43 in10.9 mm
09:40 PM 53.0°F11.7°C 45.3°F7.4°C 75% 3.0 mph SE4.8 kmh SE 4.0 mph6.4 kmh 29.98 in1015.2 mb 0.00 in0.0 mm 0.00 in0.0 mm 0.43 in10.9 mm
09:45 PM 53.0°F11.7°C 45.7°F7.6°C 76% 1.0 mph SE1.6 kmh SE 6.0 mph9.7 kmh 29.99 in1015.6 mb 0.00 in0.0 mm 0.00 in0.0 mm 0.43 in10.9 mm
09:50 PM 52.9°F11.6°C 45.6°F7.6°C 76% Calm Calm 5.0 mph8.0 kmh 29.99 in1015.6 mb 0.00 in0.0 mm 0.00 in0.0 mm 0.43 in10.9 mm
09:55 PM 52.8°F11.6°C 45.5°F7.5°C 76% Calm Calm 4.0 mph6.4 kmh 29.99 in1015.6 mb 0.00 in0.0 mm 0.00 in0.0 mm 0.43 in10.9 mm
10:00 PM 52.6°F11.4°C 45.3°F7.4°C 76% 2.0 mph SE3.2 kmh SE 7.0 mph11.3 kmh 30.00 in1015.9 mb 0.00 in0.0 mm 0.00 in0.0 mm 0.43 in10.9 mm
10:05 PM 52.5°F11.4°C 45.2°F7.3°C 76% 2.0 mph SE3.2 kmh SE 5.0 mph8.0 kmh 30.00 in1015.9 mb 0.00 in0.0 mm 0.00 in0.0 mm 0.43 in10.9 mm
10:10 PM 52.3°F11.3°C 45.0°F7.2°C 76% 3.0 mph ESE4.8 kmh ESE 4.0 mph6.4 kmh 30.01 in1016.3 mb 0.00 in0.0 mm 0.00 in0.0 mm 0.43 in10.9 mm
10:15 PM 52.2°F11.2°C 44.9°F7.2°C 76% 2.0 mph ESE3.2 kmh ESE 5.0 mph8.0 kmh 30.01 in1016.3 mb 0.00 in0.0 mm 0.00 in0.0 mm 0.43 in10.9 mm
10:20 PM 52.0°F11.1°C 44.7°F7.1°C 76% 2.0 mph ESE3.2 kmh ESE 4.0 mph6.4 kmh 30.01 in1016.3 mb 0.00 in0.0 mm 0.00 in0.0 mm 0.43 in10.9 mm
10:25 PM 51.9°F11.1°C 44.6°F7.0°C 76% 2.0 mph ESE3.2 kmh ESE 4.0 mph6.4 kmh 30.01 in1016.3 mb 0.00 in0.0 mm 0.00 in0.0 mm 0.43 in10.9 mm
10:30 PM 51.7°F10.9°C 44.7°F7.1°C 77% Calm Calm 3.0 mph4.8 kmh 30.01 in1016.3 mb 0.00 in0.0 mm 0.00 in0.0 mm 0.43 in10.9 mm
10:35 PM 51.3°F10.7°C 44.7°F7.1°C 78% Calm Calm 1.0 mph1.6 kmh 30.01 in1016.3 mb 0.00 in0.0 mm 0.00 in0.0 mm 0.43 in10.9 mm
10:40 PM 51.0°F10.6°C 44.4°F6.9°C 78% Calm Calm 1.0 mph1.6 kmh 30.02 in1016.6 mb 0.00 in0.0 mm 0.00 in0.0 mm 0.43 in10.9 mm
10:45 PM 50.9°F10.5°C 44.3°F6.8°C 78% Calm Calm 1.0 mph1.6 kmh 30.02 in1016.6 mb 0.00 in0.0 mm 0.00 in0.0 mm 0.43 in10.9 mm
10:50 PM 50.7°F10.4°C 44.1°F6.7°C 78% 2.0 mph ESE3.2 kmh ESE 3.0 mph4.8 kmh 30.01 in1016.3 mb 0.00 in0.0 mm 0.00 in0.0 mm 0.43 in10.9 mm
10:55 PM 50.8°F10.4°C 44.2°F6.8°C 78% Calm Calm 4.0 mph6.4 kmh 30.02 in1016.6 mb 0.00 in0.0 mm 0.00 in0.0 mm 0.43 in10.9 mm
11:00 PM 50.7°F10.4°C 44.1°F6.7°C 78% Calm Calm 2.0 mph3.2 kmh 30.02 in1016.6 mb 0.00 in0.0 mm 0.00 in0.0 mm 0.43 in10.9 mm
11:05 PM 50.8°F10.4°C 44.2°F6.8°C 78% 1.0 mph ESE1.6 kmh ESE 2.0 mph3.2 kmh 30.02 in1016.6 mb 0.00 in0.0 mm 0.00 in0.0 mm 0.43 in10.9 mm
11:10 PM 50.9°F10.5°C 44.0°F6.7°C 77% 1.0 mph E1.6 kmh E 3.0 mph4.8 kmh 30.02 in1016.6 mb 0.00 in0.0 mm 0.00 in0.0 mm 0.43 in10.9 mm
11:15 PM 50.9°F10.5°C 44.0°F6.7°C 77% 1.0 mph ESE1.6 kmh ESE 3.0 mph4.8 kmh 30.02 in1016.6 mb 0.00 in0.0 mm 0.00 in0.0 mm 0.43 in10.9 mm
11:20 PM 50.8°F10.4°C 44.2°F6.8°C 78% 2.0 mph E3.2 kmh E 2.0 mph3.2 kmh 30.02 in1016.6 mb 0.00 in0.0 mm 0.00 in0.0 mm 0.43 in10.9 mm
11:25 PM 50.7°F10.4°C 43.8°F6.6°C 77% 1.0 mph SE1.6 kmh SE 3.0 mph4.8 kmh 30.03 in1016.9 mb 0.00 in0.0 mm 0.00 in0.0 mm 0.43 in10.9 mm
11:30 PM 50.6°F10.3°C 43.7°F6.5°C 77% 4.0 mph ESE6.4 kmh ESE 4.0 mph6.4 kmh 30.03 in1016.9 mb 0.00 in0.0 mm 0.00 in0.0 mm 0.43 in10.9 mm
11:35 PM 50.5°F10.3°C 43.6°F6.4°C 77% Calm Calm 2.0 mph3.2 kmh 30.03 in1016.9 mb 0.00 in0.0 mm 0.00 in0.0 mm 0.43 in10.9 mm
11:40 PM 50.2°F10.1°C 43.6°F6.4°C 78% Calm Calm 1.0 mph1.6 kmh 30.03 in1016.9 mb 0.00 in0.0 mm 0.00 in0.0 mm 0.43 in10.9 mm
11:45 PM 50.0°F10.0°C 43.4°F6.3°C 78% Calm Calm -- 30.03 in1016.9 mb 0.00 in0.0 mm 0.00 in0.0 mm 0.43 in10.9 mm
11:50 PM 49.9°F9.9°C 43.3°F6.3°C 78% Calm Calm -- 30.03 in1016.9 mb 0.00 in0.0 mm 0.00 in0.0 mm 0.43 in10.9 mm
11:55 PM 49.9°F9.9°C 43.3°F6.3°C 78% Calm Calm 2.0 mph3.2 kmh 30.03 in1016.9 mb 0.00 in0.0 mm 0.00 in0.0 mm 0.43 in10.9 mm